createdAt,value
2018-05-09T00:00:32.930Z,96699.95
2018-05-09T00:03:01.004Z,96701.59
2018-05-09T00:05:28.567Z,96703.19
2018-05-09T00:07:56.146Z,96693.87
2018-05-09T00:10:23.698Z,96699.03
2018-05-09T00:12:51.223Z,96692.50
2018-05-09T00:15:18.791Z,96689.66
2018-05-09T00:17:46.356Z,96689.55
2018-05-09T00:20:13.905Z,96688.92
2018-05-09T00:22:41.429Z,96685.69
2018-05-09T00:25:08.963Z,96690.03
2018-05-09T00:27:36.615Z,96685.30
2018-05-09T00:30:04.131Z,96687.94
2018-05-09T00:32:31.701Z,96681.30
2018-05-09T00:34:59.262Z,96677.77
2018-05-09T00:37:26.833Z,96676.40
2018-05-09T00:39:54.406Z,96677.16
2018-05-09T00:42:21.929Z,96675.58
2018-05-09T00:44:49.563Z,96676.39
2018-05-09T00:47:17.063Z,96684.58
2018-05-09T00:49:44.594Z,96683.93
2018-05-09T00:52:12.133Z,96681.01
2018-05-09T00:54:39.670Z,96685.89
2018-05-09T00:57:07.226Z,96679.94
2018-05-09T00:59:34.829Z,96682.27
2018-05-09T01:02:02.381Z,96677.00
2018-05-09T01:04:29.898Z,96672.85
2018-05-09T01:06:57.405Z,96677.33
2018-05-09T01:09:24.966Z,96677.46
2018-05-09T01:11:52.498Z,96676.89
2018-05-09T01:14:20.079Z,96670.20
2018-05-09T01:16:47.638Z,96672.07
2018-05-09T01:19:15.183Z,96669.21
2018-05-09T01:21:42.700Z,96666.36
2018-05-09T01:24:10.500Z,96663.64
2018-05-09T01:26:38.058Z,96663.97
2018-05-09T01:29:05.626Z,96660.02
2018-05-09T01:31:33.135Z,96659.52
2018-05-09T01:34:00.694Z,96659.28
2018-05-09T01:36:28.259Z,96662.05
2018-05-09T01:38:55.827Z,96656.63
2018-05-09T01:41:23.435Z,96655.76
2018-05-09T01:43:50.967Z,96660.84
2018-05-09T01:46:18.534Z,96662.13
2018-05-09T01:48:46.102Z,96663.04
2018-05-09T01:51:13.686Z,96666.11
2018-05-09T01:53:41.181Z,96666.27
2018-05-09T01:56:08.691Z,96664.59
2018-05-09T01:58:36.269Z,96665.14
2018-05-09T02:01:03.794Z,96658.67
2018-05-09T02:03:31.351Z,96647.39
2018-05-09T02:05:58.936Z,96644.08
2018-05-09T02:08:26.441Z,96647.02
2018-05-09T02:10:53.979Z,96633.24
2018-05-09T02:13:21.485Z,96638.81
2018-05-09T02:15:49.044Z,96637.94
2018-05-09T02:18:17.485Z,96646.09
2018-05-09T02:20:45.033Z,96650.36
2018-05-09T02:23:12.563Z,96646.80
2018-05-09T02:25:40.085Z,96643.91
2018-05-09T02:28:07.695Z,96642.51
2018-05-09T02:30:35.193Z,96635.02
2018-05-09T02:33:02.722Z,96645.50
2018-05-09T02:35:30.277Z,96640.52
2018-05-09T02:37:57.833Z,96637.77
2018-05-09T02:40:25.413Z,96628.10
2018-05-09T02:42:52.930Z,96635.55
2018-05-09T02:45:20.437Z,96624.62
2018-05-09T02:47:47.962Z,96634.34
2018-05-09T02:50:15.490Z,96633.48
2018-05-09T02:52:43.860Z,96638.45
2018-05-09T02:55:11.389Z,96642.40
2018-05-09T02:57:38.906Z,96645.36
2018-05-09T03:00:06.480Z,96644.54
2018-05-09T03:02:34.429Z,96674.09
2018-05-09T03:05:01.982Z,96647.80
2018-05-09T03:07:29.510Z,96652.02
2018-05-09T03:09:57.052Z,96649.73
2018-05-09T03:12:24.610Z,96647.56
2018-05-09T03:14:52.131Z,96655.26
2018-05-09T03:17:19.682Z,96657.48
2018-05-09T03:19:47.229Z,96655.55
2018-05-09T03:22:14.773Z,96654.00
2018-05-09T03:24:42.320Z,96661.31
2018-05-09T03:27:09.830Z,96666.12
2018-05-09T03:29:37.432Z,96659.61
2018-05-09T03:32:04.971Z,96653.16
2018-05-09T03:34:32.513Z,96652.11
2018-05-09T03:37:00.075Z,96653.11
2018-05-09T03:39:27.632Z,96651.27
2018-05-09T03:41:55.188Z,96652.10
2018-05-09T03:44:22.699Z,96646.30
2018-05-09T03:46:50.207Z,96647.56
2018-05-09T03:49:17.793Z,96644.06
2018-05-09T03:51:45.363Z,96648.84
2018-05-09T03:54:12.935Z,96647.37
2018-05-09T03:56:40.458Z,96643.83
2018-05-09T03:59:08.012Z,96639.55
2018-05-09T04:04:46.430Z,96627.08
2018-05-09T04:10:19.727Z,96618.19
2018-05-09T04:12:47.218Z,96619.55
2018-05-09T04:15:14.754Z,96613.88
2018-05-09T04:17:42.310Z,96615.90
2018-05-09T04:20:09.861Z,96619.06
2018-05-09T04:22:37.376Z,96616.70
2018-05-09T04:25:04.889Z,96609.61
2018-05-09T04:27:32.492Z,96610.91
2018-05-09T04:29:59.995Z,96609.75
2018-05-09T04:32:27.490Z,96612.45
2018-05-09T04:34:55.038Z,96613.96
2018-05-09T04:37:22.560Z,96617.50
2018-05-09T04:39:50.084Z,96605.70
2018-05-09T04:42:17.581Z,96612.50
2018-05-09T04:44:45.087Z,96613.78
2018-05-09T04:47:12.620Z,96598.59
2018-05-09T04:49:40.107Z,96616.73
2018-05-09T04:52:07.638Z,96612.46
2018-05-09T04:54:35.147Z,96610.95
2018-05-09T04:57:02.655Z,96611.42
2018-05-09T04:59:30.188Z,96615.66
2018-05-09T05:01:57.700Z,96614.18
2018-05-09T05:04:25.266Z,96617.05
2018-05-09T05:06:52.847Z,96612.33
2018-05-09T05:09:20.357Z,96602.66
2018-05-09T05:11:47.878Z,96606.09
2018-05-09T05:14:15.420Z,96615.58
2018-05-09T05:16:42.974Z,96604.42
2018-05-09T05:19:10.502Z,96604.81
2018-05-09T05:21:38.005Z,96609.95
2018-05-09T05:24:05.761Z,96601.66
2018-05-09T05:26:33.269Z,96614.61
2018-05-09T05:29:00.859Z,96612.05
2018-05-09T05:31:28.368Z,96599.39
2018-05-09T05:33:55.922Z,96623.48
2018-05-09T05:36:23.451Z,96622.77
2018-05-09T05:38:51.057Z,96627.95
2018-05-09T05:41:18.565Z,96629.84
2018-05-09T05:43:46.090Z,96624.97
2018-05-09T05:46:13.589Z,96631.31
2018-05-09T05:48:41.160Z,96629.47
2018-05-09T05:51:08.655Z,96640.17
2018-05-09T05:53:36.833Z,96631.86
2018-05-09T05:56:04.421Z,96631.50
2018-05-09T05:58:31.871Z,96640.14
2018-05-09T06:00:59.453Z,96632.16
2018-05-09T06:03:26.978Z,96632.34
2018-05-09T06:05:54.526Z,96627.82
2018-05-09T06:08:22.051Z,96627.36
2018-05-09T06:10:49.574Z,96622.45
2018-05-09T06:13:17.103Z,96608.70
2018-05-09T06:15:44.660Z,96610.39
2018-05-09T06:18:12.223Z,96612.31
2018-05-09T06:20:39.746Z,96618.39
2018-05-09T06:23:07.243Z,96621.96
2018-05-09T06:25:34.815Z,96620.20
2018-05-09T06:28:02.365Z,96621.98
2018-05-09T06:30:29.907Z,96612.38
2018-05-09T06:32:57.447Z,96603.28
2018-05-09T06:35:24.991Z,96624.53
2018-05-09T06:37:52.540Z,96627.95
2018-05-09T06:40:20.080Z,96625.40
2018-05-09T06:42:47.622Z,96621.52
2018-05-09T06:45:15.150Z,96621.41
2018-05-09T06:47:42.663Z,96623.44
2018-05-09T06:50:10.200Z,96621.44
2018-05-09T06:52:37.735Z,96618.68
2018-05-09T06:55:05.345Z,96620.70
2018-05-09T06:57:32.868Z,96617.72
2018-05-09T07:00:00.472Z,96621.77
2018-05-09T07:02:27.979Z,96625.00
2018-05-09T07:04:55.497Z,96627.19
2018-05-09T07:07:23.035Z,96622.59
2018-05-09T07:09:50.562Z,96628.37
2018-05-09T07:12:18.065Z,96627.13
2018-05-09T07:14:45.665Z,96631.28
2018-05-09T07:17:13.157Z,96624.91
2018-05-09T07:19:40.725Z,96632.48
2018-05-09T07:22:08.311Z,96641.64
2018-05-09T07:24:35.758Z,96639.95
2018-05-09T07:27:03.352Z,96636.98
2018-05-09T07:29:30.873Z,96638.66
2018-05-09T07:31:58.409Z,96636.42
2018-05-09T07:34:25.926Z,96640.39
2018-05-09T07:36:53.472Z,96637.58
2018-05-09T07:39:21.026Z,96644.22
2018-05-09T07:41:48.536Z,96642.76
2018-05-09T07:44:16.070Z,96646.02
2018-05-09T07:46:43.573Z,96652.84
2018-05-09T07:49:11.103Z,96648.02
2018-05-09T07:51:38.653Z,96643.31
2018-05-09T07:54:06.191Z,96641.27
2018-05-09T07:56:33.733Z,96650.30
2018-05-09T07:59:01.234Z,96644.17
2018-05-09T08:01:28.726Z,96648.13
2018-05-09T08:03:56.263Z,96634.54
2018-05-09T08:06:23.774Z,96623.87
2018-05-09T08:08:51.304Z,96633.34
2018-05-09T08:11:18.798Z,96633.39
2018-05-09T08:13:46.302Z,96638.69
2018-05-09T08:16:13.843Z,96633.75
2018-05-09T08:18:41.374Z,96631.67
2018-05-09T08:21:08.912Z,96627.28
2018-05-09T08:23:36.435Z,96644.95
2018-05-09T08:26:03.932Z,96636.42
2018-05-09T08:28:31.489Z,96633.88
2018-05-09T08:30:59.009Z,96627.84
2018-05-09T08:33:26.517Z,96639.13
2018-05-09T08:35:54.068Z,96643.61
2018-05-09T08:38:21.550Z,96637.56
2018-05-09T08:40:49.082Z,96635.50
2018-05-09T08:43:16.674Z,96627.98
2018-05-09T08:45:44.157Z,96633.88
2018-05-09T08:48:11.682Z,96626.83
2018-05-09T08:50:39.207Z,96629.95
2018-05-09T08:53:06.798Z,96623.05
2018-05-09T08:55:34.453Z,96613.95
2018-05-09T08:58:01.907Z,96630.69
2018-05-09T09:00:29.904Z,96624.63
2018-05-09T09:02:57.443Z,96635.31
2018-05-09T09:05:25.016Z,96638.77
2018-05-09T09:07:52.517Z,96636.88
2018-05-09T09:10:20.062Z,96630.69
2018-05-09T09:12:47.589Z,96630.20
2018-05-09T09:15:15.233Z,96624.80
2018-05-09T09:17:42.765Z,96628.02
2018-05-09T09:20:10.363Z,96629.28
2018-05-09T09:22:37.929Z,96617.47
2018-05-09T09:25:05.437Z,96621.52
2018-05-09T09:27:32.959Z,96618.94
2018-05-09T09:30:00.516Z,96619.63
2018-05-09T09:32:28.008Z,96627.22
2018-05-09T09:34:55.631Z,96628.39
2018-05-09T09:37:23.194Z,96617.43
2018-05-09T09:39:50.723Z,96608.43
2018-05-09T09:42:18.296Z,96608.75
2018-05-09T09:44:45.830Z,96611.14
2018-05-09T09:47:13.426Z,96611.57
2018-05-09T09:49:41.004Z,96609.52
2018-05-09T09:52:08.540Z,96622.62
2018-05-09T09:54:36.059Z,96626.02
2018-05-09T09:57:03.592Z,96618.50
2018-05-09T09:59:31.152Z,96621.23
2018-05-09T10:01:58.669Z,96610.27
2018-05-09T10:04:26.213Z,96619.02
2018-05-09T10:06:53.784Z,96620.11
2018-05-09T10:09:21.293Z,96611.39
2018-05-09T10:11:48.849Z,96608.69
2018-05-09T10:14:16.337Z,96607.61
2018-05-09T10:16:43.837Z,96605.97
2018-05-09T10:19:11.479Z,96604.91
2018-05-09T10:21:39.065Z,96596.16
2018-05-09T10:24:06.651Z,96593.41
2018-05-09T10:26:34.198Z,96588.14
2018-05-09T10:29:01.713Z,96584.52
2018-05-09T10:31:29.292Z,96598.09
2018-05-09T10:33:56.813Z,96247.27
2018-05-09T10:36:24.402Z,96561.31
2018-05-09T10:38:51.967Z,96586.40
2018-05-09T10:41:19.487Z,96583.33
2018-05-09T10:43:47.062Z,96578.06
2018-05-09T10:46:14.599Z,96578.00
2018-05-09T10:48:42.187Z,96568.55
2018-05-09T10:51:09.773Z,96564.11
2018-05-09T10:53:37.314Z,96570.95
2018-05-09T10:56:04.817Z,96567.70
2018-05-09T10:58:32.362Z,96564.52
2018-05-09T11:00:59.866Z,96568.39
2018-05-09T11:03:27.459Z,96561.61
2018-05-09T11:05:55.014Z,96558.47
2018-05-09T11:08:22.539Z,96554.80
2018-05-09T11:10:50.140Z,96564.52
2018-05-09T11:13:17.685Z,96557.34
2018-05-09T11:15:45.223Z,96561.02
2018-05-09T11:18:12.747Z,96557.13
2018-05-09T11:20:40.262Z,96562.73
2018-05-09T11:23:07.799Z,96561.85
2018-05-09T11:25:35.337Z,96560.14
2018-05-09T11:28:03.845Z,96554.21
2018-05-09T11:30:31.381Z,96556.72
2018-05-09T11:32:58.907Z,96565.58
2018-05-09T11:35:26.475Z,96548.14
2018-05-09T11:37:53.999Z,96554.93
2018-05-09T11:40:21.560Z,96549.10
2018-05-09T11:42:49.087Z,96538.77
2018-05-09T11:45:16.636Z,96538.48
2018-05-09T11:47:44.180Z,96542.66
2018-05-09T11:50:11.704Z,96538.64
2018-05-09T11:52:39.255Z,96538.90
2018-05-09T11:55:06.812Z,96540.13
2018-05-09T11:57:34.324Z,96548.69
2018-05-09T12:00:01.890Z,96549.32
2018-05-09T12:02:29.512Z,96552.56
2018-05-09T12:04:57.022Z,96523.52
2018-05-09T12:07:24.556Z,96542.86
2018-05-09T12:09:52.104Z,96534.78
2018-05-09T12:12:19.677Z,96534.63
2018-05-09T12:14:47.219Z,96540.64
2018-05-09T12:17:14.745Z,96534.88
2018-05-09T12:19:42.291Z,96543.77
2018-05-09T12:22:09.823Z,96529.70
2018-05-09T12:24:37.438Z,96526.23
2018-05-09T12:27:04.971Z,96520.07
2018-05-09T12:29:32.531Z,96523.86
2018-05-09T12:32:00.056Z,96520.84
2018-05-09T12:34:27.585Z,96517.91
2018-05-09T12:36:55.134Z,96517.98
2018-05-09T12:39:22.702Z,96516.07
2018-05-09T12:41:50.307Z,96513.25
2018-05-09T12:44:18.878Z,96510.46
2018-05-09T12:46:46.558Z,96500.71
2018-05-09T12:49:14.117Z,96502.80
2018-05-09T12:51:41.641Z,96505.75
2018-05-09T12:54:09.193Z,96496.04
2018-05-09T12:56:36.730Z,96491.81
2018-05-09T12:59:04.266Z,96481.13
2018-05-09T13:01:31.813Z,96477.02
2018-05-09T13:03:59.336Z,96468.95
2018-05-09T13:06:26.893Z,96441.56
2018-05-09T13:08:54.418Z,96470.72
2018-05-09T13:11:23.985Z,96451.44
2018-05-09T13:13:51.529Z,96442.42
2018-05-09T13:16:19.054Z,96446.30
2018-05-09T13:18:46.641Z,96451.81
2018-05-09T13:21:14.165Z,96444.59
2018-05-09T13:23:41.734Z,96434.30
2018-05-09T13:26:09.313Z,96437.27
2018-05-09T13:28:36.876Z,96424.91
2018-05-09T13:31:05.173Z,96427.02
2018-05-09T13:33:32.707Z,96421.00
2018-05-09T13:36:00.216Z,96417.63
2018-05-09T13:38:27.749Z,96419.74
2018-05-09T13:40:55.251Z,96409.91
2018-05-09T13:43:22.795Z,96406.89
2018-05-09T13:45:50.318Z,96405.17
2018-05-09T13:48:17.863Z,96403.86
2018-05-09T13:50:45.446Z,96405.58
2018-05-09T13:53:12.955Z,96407.33
2018-05-09T13:55:40.489Z,96400.47
2018-05-09T13:58:07.996Z,96394.00
2018-05-09T14:00:35.518Z,96385.33
2018-05-09T14:03:03.038Z,96386.64
2018-05-09T14:05:30.538Z,96390.88
2018-05-09T14:07:58.071Z,96386.39
2018-05-09T14:10:25.566Z,96399.12
2018-05-09T14:12:53.066Z,96391.47
2018-05-09T14:15:20.583Z,96388.48
2018-05-09T14:17:48.076Z,96387.59
2018-05-09T14:20:15.612Z,96385.41
2018-05-09T14:22:43.112Z,96389.69
2018-05-09T14:25:10.623Z,96383.27
2018-05-09T14:27:38.159Z,96387.12
2018-05-09T14:30:05.718Z,96382.08
2018-05-09T14:32:33.255Z,96385.91
2018-05-09T14:35:00.762Z,96385.42
2018-05-09T14:37:28.270Z,96384.62
2018-05-09T14:39:55.797Z,96388.90
2018-05-09T14:42:23.295Z,96388.05
2018-05-09T14:44:51.756Z,96383.78
2018-05-09T14:47:19.258Z,96384.60
2018-05-09T14:49:46.759Z,96388.91
2018-05-09T14:52:14.278Z,96383.34
2018-05-09T14:54:41.781Z,96390.65
2018-05-09T14:57:09.310Z,96387.59
2018-05-09T14:59:36.807Z,96390.52
2018-05-09T15:02:04.310Z,96383.58
2018-05-09T15:04:31.833Z,96363.88
2018-05-09T15:06:59.334Z,96386.16
2018-05-09T15:09:26.907Z,96379.64
2018-05-09T15:11:54.445Z,96378.83
2018-05-09T15:14:21.946Z,96384.45
2018-05-09T15:16:49.463Z,96379.56
2018-05-09T15:19:16.962Z,96384.47
2018-05-09T15:21:44.487Z,96383.27
2018-05-09T15:24:11.990Z,96383.70
2018-05-09T15:26:39.481Z,96380.37
2018-05-09T15:29:07.010Z,96383.78
2018-05-09T15:31:34.561Z,96381.20
2018-05-09T15:34:02.095Z,96387.20
2018-05-09T15:36:29.598Z,96385.06
2018-05-09T15:38:57.134Z,96382.05
2018-05-09T15:41:24.641Z,96382.06
2018-05-09T15:43:52.154Z,96380.36
2018-05-09T15:46:19.670Z,96384.20
2018-05-09T15:48:47.170Z,96380.36
2018-05-09T15:51:14.668Z,96382.05
2018-05-09T15:53:42.195Z,96370.51
2018-05-09T15:56:09.702Z,96360.23
2018-05-09T15:58:38.226Z,96377.34
2018-05-09T16:01:05.722Z,96372.60
2018-05-09T16:03:33.232Z,96387.89
2018-05-09T16:06:00.768Z,96378.82
2018-05-09T16:08:28.263Z,96381.33
2018-05-09T16:10:55.815Z,96382.97
2018-05-09T16:13:23.323Z,96376.08
2018-05-09T16:15:50.839Z,96384.22
2018-05-09T16:18:18.353Z,96383.69
2018-05-09T16:20:45.851Z,96390.03
2018-05-09T16:23:13.381Z,96388.30
2018-05-09T16:25:40.890Z,96394.70
2018-05-09T16:28:08.386Z,96385.68
2018-05-09T16:30:35.909Z,96389.51
2018-05-09T16:33:03.411Z,96395.97
2018-05-09T16:35:30.951Z,96389.70
2018-05-09T16:37:58.458Z,96391.45
2018-05-09T16:40:25.965Z,96385.12
2018-05-09T16:42:53.494Z,96389.38
2018-05-09T16:45:21.003Z,96382.84
2018-05-09T16:47:48.535Z,96385.78
2018-05-09T16:50:16.032Z,96387.06
2018-05-09T16:52:43.530Z,96385.83
2018-05-09T16:55:11.055Z,96385.83
2018-05-09T16:57:38.571Z,96393.47
2018-05-09T17:00:07.106Z,96389.91
2018-05-09T17:02:34.609Z,96397.92
2018-05-09T17:05:02.109Z,96400.41
2018-05-09T17:07:29.635Z,96394.01
2018-05-09T17:09:57.142Z,96389.78
2018-05-09T17:12:24.667Z,96388.09
2018-05-09T17:14:52.175Z,96396.53
2018-05-09T17:17:19.686Z,96394.78
2018-05-09T17:19:47.216Z,96398.11
2018-05-09T17:22:28.565Z,96397.69
2018-05-09T17:24:56.095Z,96408.30
2018-05-09T17:27:23.641Z,96403.16
2018-05-09T17:29:51.144Z,96405.19
2018-05-09T17:32:18.673Z,96399.20
2018-05-09T17:34:46.217Z,96403.25
2018-05-09T17:37:13.718Z,96402.78
2018-05-09T17:39:41.245Z,96412.45
2018-05-09T17:42:08.750Z,96409.86
2018-05-09T17:44:36.255Z,96415.30
2018-05-09T17:47:03.785Z,96415.33
2018-05-09T17:49:31.289Z,96418.67
2018-05-09T17:51:58.781Z,96416.55
2018-05-09T17:54:26.311Z,96419.36
2018-05-09T17:56:53.902Z,96418.03
2018-05-09T17:59:21.441Z,96412.00
2018-05-09T18:01:48.938Z,96413.23
2018-05-09T18:04:16.447Z,96390.44
2018-05-09T18:06:43.969Z,96405.81
2018-05-09T18:09:11.486Z,96411.67
2018-05-09T18:11:39.018Z,96415.00
2018-05-09T18:14:06.528Z,96417.80
2018-05-09T18:16:34.021Z,96413.92
2018-05-09T18:19:01.631Z,96421.16
2018-05-09T18:21:29.044Z,96420.20
2018-05-09T18:23:56.569Z,96416.67
2018-05-09T18:26:24.069Z,96421.77
2018-05-09T18:28:51.569Z,96420.36
2018-05-09T18:31:19.097Z,96421.55
2018-05-09T18:33:46.627Z,96420.56
2018-05-09T18:36:14.169Z,96428.05
2018-05-09T18:38:41.669Z,96437.75
2018-05-09T18:41:09.182Z,96432.71
2018-05-09T18:43:36.705Z,96347.45
2018-05-09T18:46:04.190Z,96440.30
2018-05-09T18:48:31.729Z,96447.31
2018-05-09T18:50:59.237Z,96447.45
2018-05-09T18:53:26.751Z,96454.95
2018-05-09T18:55:54.275Z,96456.84
2018-05-09T18:58:21.765Z,96468.09
2018-05-09T19:00:49.296Z,96472.59
2018-05-09T19:03:16.796Z,96473.06
2018-05-09T19:05:44.302Z,96477.88
2018-05-09T19:08:11.825Z,96480.95
2018-05-09T19:10:39.330Z,96488.12
2018-05-09T19:13:06.866Z,96486.59
2018-05-09T19:15:34.385Z,96492.61
2018-05-09T19:18:01.896Z,96499.86
2018-05-09T19:20:29.427Z,96495.73
2018-05-09T19:22:56.925Z,96501.81
2018-05-09T19:25:24.458Z,96490.48
2018-05-09T19:27:51.949Z,96492.03
2018-05-09T19:30:19.455Z,96498.13
2018-05-09T19:32:47.012Z,96497.53
2018-05-09T19:35:14.602Z,96496.91
2018-05-09T19:37:42.160Z,96495.83
2018-05-09T19:40:09.718Z,96498.94
2018-05-09T19:42:37.232Z,96496.58
2018-05-09T19:45:04.793Z,96494.87
2018-05-09T19:47:32.364Z,96493.03
2018-05-09T19:49:59.906Z,96498.81
2018-05-09T19:52:27.423Z,96501.96
2018-05-09T19:54:54.949Z,96495.87
2018-05-09T19:57:22.955Z,96498.23
2018-05-09T19:59:50.494Z,96500.05
2018-05-09T20:02:18.143Z,96499.47
2018-05-09T20:04:45.673Z,96503.14
2018-05-09T20:07:13.272Z,96502.91
2018-05-09T20:09:40.790Z,96509.23
2018-05-09T20:12:09.212Z,96514.66
2018-05-09T20:14:36.977Z,96512.81
2018-05-09T20:17:05.030Z,96516.56
2018-05-09T20:19:32.588Z,96510.61
2018-05-09T20:22:00.115Z,96489.59
2018-05-09T20:24:27.920Z,96506.86
2018-05-09T20:26:55.675Z,96509.58
2018-05-09T20:29:23.346Z,96513.10
2018-05-09T20:32:02.801Z,96507.39
2018-05-09T20:34:30.362Z,96515.05
2018-05-09T20:36:58.094Z,96515.75
2018-05-09T20:39:25.935Z,96517.35
2018-05-09T20:41:53.581Z,96519.89
2018-05-09T20:44:21.146Z,96522.81
2018-05-09T20:46:48.938Z,96527.02
2018-05-09T20:49:16.792Z,96525.64
2018-05-09T20:51:51.330Z,96534.49
2018-05-09T20:54:19.557Z,96532.23
2018-05-09T20:56:47.383Z,96529.09
2018-05-09T20:59:15.135Z,96531.95
2018-05-09T21:01:48.607Z,96532.28
2018-05-09T21:04:16.225Z,96528.38
2018-05-09T21:06:43.808Z,96531.78
2018-05-09T21:09:11.364Z,96540.64
2018-05-09T21:11:38.956Z,96538.17
2018-05-09T21:14:06.542Z,96539.63
2018-05-09T21:16:34.128Z,96536.16
2018-05-09T21:19:01.720Z,96541.30
2018-05-09T21:21:29.277Z,96540.22
2018-05-09T21:23:56.940Z,96538.34
2018-05-09T21:26:24.544Z,96543.59
2018-05-09T21:28:52.082Z,96547.89
2018-05-09T21:31:19.606Z,96543.81
2018-05-09T21:33:47.247Z,96544.59
2018-05-09T21:36:14.818Z,96550.43
2018-05-09T21:38:42.389Z,96548.95
2018-05-09T21:41:09.955Z,96546.90
2018-05-09T21:43:37.474Z,96548.01
2018-05-09T21:46:04.996Z,96542.44
2018-05-09T21:48:32.549Z,96540.17
2018-05-09T21:51:00.210Z,96536.98
2018-05-09T21:53:27.754Z,96534.46
2018-05-09T21:55:55.379Z,96535.56
2018-05-09T21:58:22.895Z,96537.53
2018-05-09T22:00:50.462Z,96532.20
2018-05-09T22:03:17.996Z,96543.35
2018-05-09T22:05:45.566Z,96531.45
2018-05-09T22:08:13.212Z,96529.53
2018-05-09T22:10:40.760Z,96530.60
2018-05-09T22:13:08.335Z,96530.44
2018-05-09T22:15:35.938Z,96525.76
2018-05-09T22:18:03.458Z,96535.31
2018-05-09T22:20:30.971Z,96533.80
2018-05-09T22:22:58.551Z,96535.19
2018-05-09T22:25:26.089Z,96536.34
2018-05-09T22:27:53.642Z,96536.26
2018-05-09T22:30:21.197Z,96529.44
2018-05-09T22:32:48.776Z,96534.70
2018-05-09T22:35:16.326Z,96536.84
2018-05-09T22:37:43.853Z,96526.48
2018-05-09T22:40:11.427Z,96542.71
2018-05-09T22:42:39.008Z,96540.41
2018-05-09T22:45:06.541Z,96544.88
2018-05-09T22:47:34.106Z,96545.02
2018-05-09T22:50:01.680Z,96538.95
2018-05-09T22:52:29.230Z,96529.09
2018-05-09T22:54:56.819Z,96531.45
2018-05-09T22:57:24.309Z,96529.41
2018-05-09T22:59:51.861Z,96537.17
2018-05-09T23:02:19.451Z,96539.87
2018-05-09T23:04:46.989Z,96535.71
2018-05-09T23:07:14.561Z,96534.71
2018-05-09T23:09:42.067Z,96540.46
2018-05-09T23:12:09.652Z,96535.55
2018-05-09T23:14:37.171Z,96536.17
2018-05-09T23:17:04.785Z,96528.40
2018-05-09T23:19:32.375Z,96527.31
2018-05-09T23:21:59.892Z,96530.94
2018-05-09T23:24:27.439Z,96528.62
2018-05-09T23:26:54.996Z,96527.44
2018-05-09T23:29:22.557Z,96521.50
2018-05-09T23:31:50.083Z,96525.08
2018-05-09T23:34:17.597Z,96517.47
2018-05-09T23:36:45.181Z,96523.89
2018-05-09T23:39:12.728Z,96523.74
2018-05-09T23:41:40.435Z,96517.60
2018-05-09T23:44:07.993Z,96515.98
2018-05-09T23:46:35.587Z,96516.27
2018-05-09T23:49:03.118Z,96518.33
2018-05-09T23:51:30.614Z,96516.93
2018-05-09T23:53:58.158Z,96517.95
2018-05-09T23:56:26.667Z,96516.61
2018-05-09T23:58:54.185Z,96512.75
